sensor_id;sensor_type;location;lat;lon;timestamp;P1;durP1;ratioP1;P2;durP2;ratioP2
37453;SDS011;23315;52.078;4.756;2023-09-18T00:01:36;62.13;;;41.10;;
37453;SDS011;23315;52.078;4.756;2023-09-18T00:04:04;74.55;;;46.97;;
37453;SDS011;23315;52.078;4.756;2023-09-18T00:06:32;64.35;;;41.65;;
37453;SDS011;23315;52.078;4.756;2023-09-18T00:08:58;72.68;;;47.65;;
37453;SDS011;23315;52.078;4.756;2023-09-18T00:11:24;79.03;;;49.15;;
37453;SDS011;23315;52.078;4.756;2023-09-18T00:13:49;71.35;;;44.25;;
37453;SDS011;23315;52.078;4.756;2023-09-18T00:16:14;62.90;;;42.85;;
37453;SDS011;23315;52.078;4.756;2023-09-18T00:18:40;61.65;;;41.55;;
37453;SDS011;23315;52.078;4.756;2023-09-18T00:21:06;63.20;;;42.88;;
37453;SDS011;23315;52.078;4.756;2023-09-18T00:23:32;74.45;;;44.63;;
37453;SDS011;23315;52.078;4.756;2023-09-18T00:26:00;61.28;;;41.25;;
37453;SDS011;23315;52.078;4.756;2023-09-18T00:28:25;61.55;;;41.30;;
37453;SDS011;23315;52.078;4.756;2023-09-18T00:30:51;72.55;;;44.58;;
37453;SDS011;23315;52.078;4.756;2023-09-18T00:33:16;63.63;;;42.13;;
37453;SDS011;23315;52.078;4.756;2023-09-18T00:35:47;53.65;;;37.45;;
37453;SDS011;23315;52.078;4.756;2023-09-18T00:38:13;69.72;;;45.13;;
37453;SDS011;23315;52.078;4.756;2023-09-18T00:40:39;61.47;;;44.35;;
37453;SDS011;23315;52.078;4.756;2023-09-18T00:43:04;69.90;;;44.78;;
37453;SDS011;23315;52.078;4.756;2023-09-18T00:45:29;58.58;;;38.10;;
37453;SDS011;23315;52.078;4.756;2023-09-18T00:47:55;55.00;;;39.13;;
37453;SDS011;23315;52.078;4.756;2023-09-18T00:50:20;67.30;;;43.25;;
37453;SDS011;23315;52.078;4.756;2023-09-18T00:52:46;53.08;;;38.53;;
37453;SDS011;23315;52.078;4.756;2023-09-18T00:55:12;50.47;;;37.45;;
37453;SDS011;23315;52.078;4.756;2023-09-18T00:57:38;50.83;;;36.70;;
37453;SDS011;23315;52.078;4.756;2023-09-18T01:00:04;66.20;;;43.13;;
37453;SDS011;23315;52.078;4.756;2023-09-18T01:02:30;47.72;;;34.78;;
37453;SDS011;23315;52.078;4.756;2023-09-18T01:04:56;46.17;;;32.25;;
37453;SDS011;23315;52.078;4.756;2023-09-18T01:07:22;46.30;;;34.10;;
37453;SDS011;23315;52.078;4.756;2023-09-18T01:09:48;44.85;;;33.80;;
37453;SDS011;23315;52.078;4.756;2023-09-18T01:15:07;43.78;;;32.35;;
37453;SDS011;23315;52.078;4.756;2023-09-18T01:17:38;45.15;;;32.65;;
37453;SDS011;23315;52.078;4.756;2023-09-18T01:20:04;42.13;;;31.55;;
37453;SDS011;23315;52.078;4.756;2023-09-18T01:22:31;49.72;;;36.50;;
37453;SDS011;23315;52.078;4.756;2023-09-18T01:24:57;37.80;;;29.35;;
37453;SDS011;23315;52.078;4.756;2023-09-18T01:27:22;40.45;;;32.47;;
37453;SDS011;23315;52.078;4.756;2023-09-18T01:29:48;45.92;;;36.10;;
37453;SDS011;23315;52.078;4.756;2023-09-18T01:32:14;37.28;;;31.08;;
37453;SDS011;23315;52.078;4.756;2023-09-18T01:34:50;39.40;;;29.90;;
37453;SDS011;23315;52.078;4.756;2023-09-18T01:37:18;33.17;;;27.92;;
37453;SDS011;23315;52.078;4.756;2023-09-18T01:39:46;35.63;;;27.30;;
37453;SDS011;23315;52.078;4.756;2023-09-18T01:42:13;37.67;;;29.92;;
37453;SDS011;23315;52.078;4.756;2023-09-18T01:44:39;36.03;;;28.85;;
37453;SDS011;23315;52.078;4.756;2023-09-18T01:47:06;34.85;;;27.77;;
37453;SDS011;23315;52.078;4.756;2023-09-18T01:49:37;37.17;;;28.95;;
37453;SDS011;23315;52.078;4.756;2023-09-18T01:52:03;36.25;;;28.05;;
37453;SDS011;23315;52.078;4.756;2023-09-18T01:54:29;40.50;;;31.67;;
37453;SDS011;23315;52.078;4.756;2023-09-18T01:56:55;39.92;;;32.17;;
37453;SDS011;23315;52.078;4.756;2023-09-18T01:59:21;33.85;;;27.23;;
37453;SDS011;23315;52.078;4.756;2023-09-18T02:01:47;36.20;;;28.08;;
37453;SDS011;23315;52.078;4.756;2023-09-18T02:04:12;35.67;;;28.27;;
37453;SDS011;23315;52.078;4.756;2023-09-18T02:06:38;33.72;;;27.58;;
37453;SDS011;23315;52.078;4.756;2023-09-18T02:09:05;30.08;;;25.75;;
37453;SDS011;23315;52.078;4.756;2023-09-18T02:11:30;33.80;;;27.20;;
37453;SDS011;23315;52.078;4.756;2023-09-18T02:13:56;31.33;;;24.80;;
37453;SDS011;23315;52.078;4.756;2023-09-18T02:16:21;30.77;;;25.17;;
37453;SDS011;23315;52.078;4.756;2023-09-18T02:18:47;29.50;;;23.52;;
37453;SDS011;23315;52.078;4.756;2023-09-18T02:21:22;29.55;;;24.17;;
37453;SDS011;23315;52.078;4.756;2023-09-18T02:23:49;32.20;;;25.75;;
37453;SDS011;23315;52.078;4.756;2023-09-18T02:26:21;34.60;;;28.55;;
37453;SDS011;23315;52.078;4.756;2023-09-18T02:28:47;35.88;;;28.83;;
37453;SDS011;23315;52.078;4.756;2023-09-18T02:31:13;36.28;;;29.33;;
37453;SDS011;23315;52.078;4.756;2023-09-18T02:33:38;29.00;;;23.60;;
37453;SDS011;23315;52.078;4.756;2023-09-18T02:36:04;28.35;;;24.08;;
37453;SDS011;23315;52.078;4.756;2023-09-18T02:38:30;27.48;;;23.65;;
37453;SDS011;23315;52.078;4.756;2023-09-18T02:40:55;30.83;;;24.52;;
37453;SDS011;23315;52.078;4.756;2023-09-18T02:43:22;28.38;;;23.55;;
37453;SDS011;23315;52.078;4.756;2023-09-18T02:45:47;27.50;;;24.60;;
37453;SDS011;23315;52.078;4.756;2023-09-18T02:48:13;31.73;;;25.95;;
37453;SDS011;23315;52.078;4.756;2023-09-18T02:50:38;29.65;;;23.02;;
37453;SDS011;23315;52.078;4.756;2023-09-18T02:53:05;30.15;;;24.92;;
37453;SDS011;23315;52.078;4.756;2023-09-18T02:55:31;33.92;;;28.02;;
37453;SDS011;23315;52.078;4.756;2023-09-18T02:57:56;28.42;;;24.67;;
37453;SDS011;23315;52.078;4.756;2023-09-18T03:00:22;29.73;;;25.45;;
37453;SDS011;23315;52.078;4.756;2023-09-18T03:02:47;30.38;;;24.45;;
37453;SDS011;23315;52.078;4.756;2023-09-18T03:05:12;29.17;;;24.48;;
37453;SDS011;23315;52.078;4.756;2023-09-18T03:07:38;29.85;;;24.88;;
37453;SDS011;23315;52.078;4.756;2023-09-18T03:10:03;32.45;;;25.35;;
37453;SDS011;23315;52.078;4.756;2023-09-18T03:12:30;29.10;;;24.40;;
37453;SDS011;23315;52.078;4.756;2023-09-18T03:14:55;30.90;;;24.40;;
37453;SDS011;23315;52.078;4.756;2023-09-18T03:17:21;24.52;;;21.92;;
37453;SDS011;23315;52.078;4.756;2023-09-18T03:19:49;29.70;;;25.70;;
37453;SDS011;23315;52.078;4.756;2023-09-18T03:22:15;24.52;;;21.65;;
37453;SDS011;23315;52.078;4.756;2023-09-18T03:24:40;33.95;;;26.13;;
37453;SDS011;23315;52.078;4.756;2023-09-18T03:27:06;28.00;;;22.77;;
37453;SDS011;23315;52.078;4.756;2023-09-18T03:29:31;27.00;;;23.67;;
37453;SDS011;23315;52.078;4.756;2023-09-18T03:31:56;27.30;;;21.60;;
37453;SDS011;23315;52.078;4.756;2023-09-18T03:34:24;26.67;;;22.63;;
37453;SDS011;23315;52.078;4.756;2023-09-18T03:36:52;25.02;;;22.33;;
37453;SDS011;23315;52.078;4.756;2023-09-18T03:39:17;28.98;;;23.17;;
37453;SDS011;23315;52.078;4.756;2023-09-18T03:41:43;24.73;;;20.75;;
37453;SDS011;23315;52.078;4.756;2023-09-18T03:44:08;21.98;;;19.52;;
37453;SDS011;23315;52.078;4.756;2023-09-18T03:46:35;27.40;;;23.95;;
37453;SDS011;23315;52.078;4.756;2023-09-18T03:49:01;27.35;;;22.83;;
37453;SDS011;23315;52.078;4.756;2023-09-18T03:51:26;29.92;;;24.73;;
37453;SDS011;23315;52.078;4.756;2023-09-18T03:53:52;27.23;;;22.38;;
37453;SDS011;23315;52.078;4.756;2023-09-18T03:56:17;27.80;;;21.92;;
37453;SDS011;23315;52.078;4.756;2023-09-18T03:58:42;24.98;;;21.30;;
37453;SDS011;23315;52.078;4.756;2023-09-18T04:01:10;25.85;;;21.00;;
37453;SDS011;23315;52.078;4.756;2023-09-18T04:03:35;29.63;;;25.42;;
37453;SDS011;23315;52.078;4.756;2023-09-18T04:06:01;25.20;;;22.35;;
37453;SDS011;23315;52.078;4.756;2023-09-18T04:08:26;26.10;;;22.98;;
37453;SDS011;23315;52.078;4.756;2023-09-18T04:10:51;21.25;;;18.40;;
37453;SDS011;23315;52.078;4.756;2023-09-18T04:13:20;25.00;;;20.88;;
37453;SDS011;23315;52.078;4.756;2023-09-18T04:15:46;29.10;;;24.00;;
37453;SDS011;23315;52.078;4.756;2023-09-18T04:18:11;23.88;;;21.27;;
37453;SDS011;23315;52.078;4.756;2023-09-18T04:20:36;28.27;;;23.40;;
37453;SDS011;23315;52.078;4.756;2023-09-18T04:25:58;31.67;;;26.48;;
37453;SDS011;23315;52.078;4.756;2023-09-18T04:28:24;28.67;;;24.80;;
37453;SDS011;23315;52.078;4.756;2023-09-18T04:30:49;29.90;;;24.77;;
37453;SDS011;23315;52.078;4.756;2023-09-18T04:33:15;34.83;;;26.15;;
37453;SDS011;23315;52.078;4.756;2023-09-18T04:35:41;35.92;;;28.45;;
37453;SDS011;23315;52.078;4.756;2023-09-18T04:38:07;40.13;;;29.42;;
37453;SDS011;23315;52.078;4.756;2023-09-18T04:40:33;45.35;;;32.75;;
37453;SDS011;23315;52.078;4.756;2023-09-18T04:43:00;44.00;;;34.42;;
37453;SDS011;23315;52.078;4.756;2023-09-18T04:45:25;37.65;;;27.00;;
37453;SDS011;23315;52.078;4.756;2023-09-18T04:47:51;43.58;;;31.35;;
37453;SDS011;23315;52.078;4.756;2023-09-18T04:50:17;38.05;;;28.75;;
37453;SDS011;23315;52.078;4.756;2023-09-18T04:52:43;35.47;;;26.33;;
37453;SDS011;23315;52.078;4.756;2023-09-18T04:55:09;35.83;;;26.48;;
37453;SDS011;23315;52.078;4.756;2023-09-18T04:57:35;32.85;;;26.63;;
37453;SDS011;23315;52.078;4.756;2023-09-18T05:00:00;31.70;;;23.42;;
37453;SDS011;23315;52.078;4.756;2023-09-18T05:02:26;27.10;;;22.42;;
37453;SDS011;23315;52.078;4.756;2023-09-18T05:04:51;29.73;;;22.33;;
37453;SDS011;23315;52.078;4.756;2023-09-18T05:07:17;29.10;;;24.63;;
37453;SDS011;23315;52.078;4.756;2023-09-18T05:09:42;33.53;;;26.25;;
37453;SDS011;23315;52.078;4.756;2023-09-18T05:12:08;33.80;;;27.42;;
37453;SDS011;23315;52.078;4.756;2023-09-18T05:14:39;31.42;;;27.00;;
37453;SDS011;23315;52.078;4.756;2023-09-18T05:17:05;38.40;;;30.23;;
37453;SDS011;23315;52.078;4.756;2023-09-18T05:19:30;39.22;;;29.92;;
37453;SDS011;23315;52.078;4.756;2023-09-18T05:21:56;45.00;;;34.30;;
37453;SDS011;23315;52.078;4.756;2023-09-18T05:24:21;46.75;;;33.55;;
37453;SDS011;23315;52.078;4.756;2023-09-18T05:26:52;41.08;;;31.42;;
37453;SDS011;23315;52.078;4.756;2023-09-18T05:29:17;44.05;;;33.33;;
37453;SDS011;23315;52.078;4.756;2023-09-18T05:31:43;43.03;;;31.27;;
37453;SDS011;23315;52.078;4.756;2023-09-18T05:34:08;42.40;;;30.83;;
37453;SDS011;23315;52.078;4.756;2023-09-18T05:36:34;36.97;;;28.00;;
37453;SDS011;23315;52.078;4.756;2023-09-18T05:39:00;41.50;;;28.27;;
37453;SDS011;23315;52.078;4.756;2023-09-18T05:41:25;41.88;;;27.13;;
37453;SDS011;23315;52.078;4.756;2023-09-18T05:43:53;37.90;;;25.52;;
37453;SDS011;23315;52.078;4.756;2023-09-18T05:46:19;36.55;;;22.48;;
37453;SDS011;23315;52.078;4.756;2023-09-18T05:48:44;16.92;;;8.25;;
37453;SDS011;23315;52.078;4.756;2023-09-18T05:51:10;11.98;;;5.43;;
37453;SDS011;23315;52.078;4.756;2023-09-18T05:53:35;9.95;;;5.18;;
37453;SDS011;23315;52.078;4.756;2023-09-18T05:56:03;9.32;;;4.50;;
37453;SDS011;23315;52.078;4.756;2023-09-18T05:58:29;12.02;;;4.85;;
37453;SDS011;23315;52.078;4.756;2023-09-18T06:00:57;13.43;;;5.95;;
37453;SDS011;23315;52.078;4.756;2023-09-18T06:03:26;15.48;;;6.00;;
37453;SDS011;23315;52.078;4.756;2023-09-18T06:05:52;9.73;;;4.93;;
37453;SDS011;23315;52.078;4.756;2023-09-18T06:08:17;7.57;;;5.20;;
37453;SDS011;23315;52.078;4.756;2023-09-18T06:10:44;13.75;;;5.95;;
37453;SDS011;23315;52.078;4.756;2023-09-18T06:13:10;14.57;;;6.70;;
37453;SDS011;23315;52.078;4.756;2023-09-18T06:15:35;14.82;;;6.55;;
37453;SDS011;23315;52.078;4.756;2023-09-18T06:18:01;15.23;;;6.88;;
37453;SDS011;23315;52.078;4.756;2023-09-18T06:20:26;13.68;;;6.50;;
37453;SDS011;23315;52.078;4.756;2023-09-18T06:22:52;17.55;;;8.07;;
37453;SDS011;23315;52.078;4.756;2023-09-18T06:25:17;13.95;;;6.50;;
37453;SDS011;23315;52.078;4.756;2023-09-18T06:27:43;13.27;;;6.82;;
37453;SDS011;23315;52.078;4.756;2023-09-18T06:30:08;13.95;;;5.72;;
37453;SDS011;23315;52.078;4.756;2023-09-18T06:32:34;18.63;;;6.22;;
37453;SDS011;23315;52.078;4.756;2023-09-18T06:35:01;15.98;;;6.00;;
37453;SDS011;23315;52.078;4.756;2023-09-18T06:37:27;19.50;;;6.35;;
37453;SDS011;23315;52.078;4.756;2023-09-18T06:39:53;14.70;;;6.15;;
37453;SDS011;23315;52.078;4.756;2023-09-18T06:42:18;14.93;;;6.78;;
37453;SDS011;23315;52.078;4.756;2023-09-18T06:44:44;15.65;;;5.47;;
37453;SDS011;23315;52.078;4.756;2023-09-18T06:47:09;15.07;;;6.28;;
37453;SDS011;23315;52.078;4.756;2023-09-18T06:49:35;11.57;;;6.18;;
37453;SDS011;23315;52.078;4.756;2023-09-18T06:52:00;12.30;;;6.80;;
37453;SDS011;23315;52.078;4.756;2023-09-18T06:54:25;16.80;;;6.55;;
37453;SDS011;23315;52.078;4.756;2023-09-18T06:56:51;15.52;;;7.70;;
37453;SDS011;23315;52.078;4.756;2023-09-18T06:59:16;18.30;;;8.32;;
37453;SDS011;23315;52.078;4.756;2023-09-18T07:01:42;18.58;;;7.70;;
37453;SDS011;23315;52.078;4.756;2023-09-18T07:04:07;15.32;;;8.18;;
37453;SDS011;23315;52.078;4.756;2023-09-18T07:06:33;13.82;;;7.97;;
37453;SDS011;23315;52.078;4.756;2023-09-18T07:08:59;14.48;;;7.15;;
37453;SDS011;23315;52.078;4.756;2023-09-18T07:11:24;15.23;;;8.18;;
37453;SDS011;23315;52.078;4.756;2023-09-18T07:13:50;14.65;;;7.47;;
37453;SDS011;23315;52.078;4.756;2023-09-18T07:16:15;13.07;;;8.32;;
37453;SDS011;23315;52.078;4.756;2023-09-18T07:18:41;15.07;;;9.60;;
37453;SDS011;23315;52.078;4.756;2023-09-18T07:21:06;14.48;;;8.73;;
37453;SDS011;23315;52.078;4.756;2023-09-18T07:23:32;16.55;;;8.65;;
37453;SDS011;23315;52.078;4.756;2023-09-18T07:26:00;16.75;;;8.30;;
37453;SDS011;23315;52.078;4.756;2023-09-18T07:28:25;14.75;;;8.30;;
37453;SDS011;23315;52.078;4.756;2023-09-18T07:30:51;16.63;;;9.27;;
37453;SDS011;23315;52.078;4.756;2023-09-18T07:33:17;20.00;;;9.75;;
37453;SDS011;23315;52.078;4.756;2023-09-18T07:35:48;19.38;;;9.70;;
37453;SDS011;23315;52.078;4.756;2023-09-18T07:38:16;18.38;;;10.02;;
37453;SDS011;23315;52.078;4.756;2023-09-18T07:40:44;16.02;;;10.30;;
37453;SDS011;23315;52.078;4.756;2023-09-18T07:43:10;12.75;;;8.93;;
37453;SDS011;23315;52.078;4.756;2023-09-18T07:45:38;14.65;;;10.32;;
37453;SDS011;23315;52.078;4.756;2023-09-18T07:48:04;18.33;;;11.05;;
37453;SDS011;23315;52.078;4.756;2023-09-18T07:50:31;17.90;;;10.77;;
37453;SDS011;23315;52.078;4.756;2023-09-18T07:52:58;19.33;;;12.10;;
37453;SDS011;23315;52.078;4.756;2023-09-18T07:55:24;16.95;;;10.75;;
37453;SDS011;23315;52.078;4.756;2023-09-18T07:57:49;17.25;;;10.73;;
37453;SDS011;23315;52.078;4.756;2023-09-18T08:00:16;18.50;;;11.40;;
37453;SDS011;23315;52.078;4.756;2023-09-18T08:02:42;14.23;;;11.18;;
37453;SDS011;23315;52.078;4.756;2023-09-18T08:05:08;19.08;;;11.23;;
37453;SDS011;23315;52.078;4.756;2023-09-18T08:07:34;21.08;;;11.82;;
37453;SDS011;23315;52.078;4.756;2023-09-18T08:10:01;16.27;;;11.73;;
37453;SDS011;23315;52.078;4.756;2023-09-18T08:12:29;18.10;;;12.15;;
37453;SDS011;23315;52.078;4.756;2023-09-18T08:14:54;19.13;;;11.85;;
37453;SDS011;23315;52.078;4.756;2023-09-18T08:17:22;16.30;;;12.48;;
37453;SDS011;23315;52.078;4.756;2023-09-18T08:19:49;15.07;;;12.50;;
37453;SDS011;23315;52.078;4.756;2023-09-18T08:22:17;18.27;;;13.48;;
37453;SDS011;23315;52.078;4.756;2023-09-18T08:24:44;16.20;;;12.68;;
37453;SDS011;23315;52.078;4.756;2023-09-18T08:27:10;15.60;;;12.15;;
37453;SDS011;23315;52.078;4.756;2023-09-18T08:29:37;22.92;;;13.68;;
37453;SDS011;23315;52.078;4.756;2023-09-18T08:32:02;17.02;;;11.00;;
37453;SDS011;23315;52.078;4.756;2023-09-18T08:34:28;14.40;;;10.27;;
37453;SDS011;23315;52.078;4.756;2023-09-18T08:36:53;12.40;;;8.18;;
37453;SDS011;23315;52.078;4.756;2023-09-18T08:39:18;13.23;;;7.55;;
37453;SDS011;23315;52.078;4.756;2023-09-18T08:41:45;9.50;;;7.32;;
37453;SDS011;23315;52.078;4.756;2023-09-18T08:44:14;11.82;;;7.15;;
37453;SDS011;23315;52.078;4.756;2023-09-18T08:46:39;8.75;;;4.15;;
37453;SDS011;23315;52.078;4.756;2023-09-18T08:49:05;8.50;;;3.78;;
37453;SDS011;23315;52.078;4.756;2023-09-18T08:51:32;13.63;;;4.30;;
37453;SDS011;23315;52.078;4.756;2023-09-18T08:53:58;6.70;;;3.45;;
37453;SDS011;23315;52.078;4.756;2023-09-18T08:56:24;9.75;;;3.28;;
37453;SDS011;23315;52.078;4.756;2023-09-18T08:58:50;13.50;;;3.72;;
37453;SDS011;23315;52.078;4.756;2023-09-18T09:01:15;10.43;;;3.58;;
37453;SDS011;23315;52.078;4.756;2023-09-18T09:03:41;9.63;;;3.33;;
37453;SDS011;23315;52.078;4.756;2023-09-18T09:06:08;8.73;;;3.15;;
37453;SDS011;23315;52.078;4.756;2023-09-18T09:08:34;9.55;;;3.58;;
37453;SDS011;23315;52.078;4.756;2023-09-18T09:11:00;8.48;;;3.63;;
37453;SDS011;23315;52.078;4.756;2023-09-18T09:13:25;16.58;;;4.95;;
37453;SDS011;23315;52.078;4.756;2023-09-18T09:15:52;9.95;;;4.25;;
37453;SDS011;23315;52.078;4.756;2023-09-18T09:18:20;9.23;;;4.10;;
37453;SDS011;23315;52.078;4.756;2023-09-18T09:20:56;9.15;;;4.07;;
37453;SDS011;23315;52.078;4.756;2023-09-18T09:23:24;12.18;;;3.78;;
37453;SDS011;23315;52.078;4.756;2023-09-18T09:25:50;7.07;;;3.38;;
37453;SDS011;23315;52.078;4.756;2023-09-18T09:28:16;9.90;;;3.65;;
37453;SDS011;23315;52.078;4.756;2023-09-18T09:30:41;11.55;;;3.85;;
37453;SDS011;23315;52.078;4.756;2023-09-18T09:33:09;9.43;;;3.40;;
37453;SDS011;23315;52.078;4.756;2023-09-18T09:35:37;11.32;;;3.63;;
37453;SDS011;23315;52.078;4.756;2023-09-18T09:40:33;12.57;;;4.13;;
37453;SDS011;23315;52.078;4.756;2023-09-18T09:43:00;9.30;;;4.43;;
37453;SDS011;23315;52.078;4.756;2023-09-18T09:45:29;14.60;;;4.30;;
37453;SDS011;23315;52.078;4.756;2023-09-18T09:47:58;10.13;;;4.38;;
37453;SDS011;23315;52.078;4.756;2023-09-18T09:50:25;18.17;;;4.85;;
37453;SDS011;23315;52.078;4.756;2023-09-18T09:52:51;11.55;;;4.88;;
37453;SDS011;23315;52.078;4.756;2023-09-18T09:55:25;11.18;;;4.22;;
37453;SDS011;23315;52.078;4.756;2023-09-18T09:58:01;13.43;;;4.78;;
37453;SDS011;23315;52.078;4.756;2023-09-18T10:00:43;13.02;;;4.53;;
37453;SDS011;23315;52.078;4.756;2023-09-18T10:03:13;12.68;;;4.70;;
37453;SDS011;23315;52.078;4.756;2023-09-18T10:05:43;13.50;;;4.35;;
37453;SDS011;23315;52.078;4.756;2023-09-18T10:08:13;11.80;;;4.32;;
37453;SDS011;23315;52.078;4.756;2023-09-18T10:10:51;11.63;;;5.65;;
37453;SDS011;23315;52.078;4.756;2023-09-18T10:13:18;14.43;;;6.10;;
37453;SDS011;23315;52.078;4.756;2023-09-18T10:15:47;11.15;;;5.72;;
37453;SDS011;23315;52.078;4.756;2023-09-18T10:18:27;8.50;;;5.80;;
37453;SDS011;23315;52.078;4.756;2023-09-18T10:21:03;10.65;;;5.72;;
37453;SDS011;23315;52.078;4.756;2023-09-18T10:23:50;10.55;;;6.28;;
37453;SDS011;23315;52.078;4.756;2023-09-18T10:26:23;9.50;;;6.43;;
37453;SDS011;23315;52.078;4.756;2023-09-18T10:28:50;11.85;;;6.88;;
37453;SDS011;23315;52.078;4.756;2023-09-18T10:31:19;10.95;;;6.32;;
37453;SDS011;23315;52.078;4.756;2023-09-18T10:33:45;13.80;;;5.65;;
37453;SDS011;23315;52.078;4.756;2023-09-18T10:36:12;11.70;;;5.55;;
37453;SDS011;23315;52.078;4.756;2023-09-18T10:38:38;13.23;;;5.82;;
37453;SDS011;23315;52.078;4.756;2023-09-18T10:41:04;13.52;;;6.47;;
37453;SDS011;23315;52.078;4.756;2023-09-18T10:43:30;9.60;;;5.88;;
37453;SDS011;23315;52.078;4.756;2023-09-18T10:45:55;12.48;;;6.75;;
37453;SDS011;23315;52.078;4.756;2023-09-18T10:48:21;13.45;;;5.60;;
37453;SDS011;23315;52.078;4.756;2023-09-18T10:50:47;14.98;;;6.60;;
37453;SDS011;23315;52.078;4.756;2023-09-18T10:53:13;14.85;;;6.85;;
37453;SDS011;23315;52.078;4.756;2023-09-18T10:55:38;11.88;;;6.40;;
37453;SDS011;23315;52.078;4.756;2023-09-18T10:58:04;13.30;;;7.07;;
37453;SDS011;23315;52.078;4.756;2023-09-18T11:00:30;13.32;;;7.18;;
37453;SDS011;23315;52.078;4.756;2023-09-18T11:03:15;9.75;;;6.22;;
37453;SDS011;23315;52.078;4.756;2023-09-18T11:05:46;13.07;;;7.60;;
37453;SDS011;23315;52.078;4.756;2023-09-18T11:08:25;10.48;;;6.13;;
37453;SDS011;23315;52.078;4.756;2023-09-18T11:11:11;13.32;;;5.90;;
37453;SDS011;23315;52.078;4.756;2023-09-18T11:13:44;13.65;;;6.30;;
37453;SDS011;23315;52.078;4.756;2023-09-18T11:16:18;14.88;;;6.63;;
37453;SDS011;23315;52.078;4.756;2023-09-18T11:21:27;14.40;;;4.90;;
37453;SDS011;23315;52.078;4.756;2023-09-18T11:24:06;11.93;;;5.30;;
37453;SDS011;23315;52.078;4.756;2023-09-18T11:26:36;8.75;;;4.40;;
37453;SDS011;23315;52.078;4.756;2023-09-18T11:29:05;12.10;;;4.85;;
37453;SDS011;23315;52.078;4.756;2023-09-18T11:34:14;11.50;;;4.43;;
37453;SDS011;23315;52.078;4.756;2023-09-18T11:36:41;13.20;;;4.93;;
37453;SDS011;23315;52.078;4.756;2023-09-18T11:39:06;16.73;;;4.32;;
37453;SDS011;23315;52.078;4.756;2023-09-18T11:41:34;11.00;;;3.83;;
37453;SDS011;23315;52.078;4.756;2023-09-18T11:46:37;7.78;;;3.72;;
37453;SDS011;23315;52.078;4.756;2023-09-18T11:49:05;14.02;;;4.03;;
37453;SDS011;23315;52.078;4.756;2023-09-18T11:51:32;12.68;;;4.20;;
37453;SDS011;23315;52.078;4.756;2023-09-18T11:53:58;8.85;;;3.38;;
37453;SDS011;23315;52.078;4.756;2023-09-18T11:56:23;9.40;;;3.97;;
37453;SDS011;23315;52.078;4.756;2023-09-18T11:58:49;9.27;;;3.67;;
37453;SDS011;23315;52.078;4.756;2023-09-18T12:01:17;9.55;;;3.97;;
37453;SDS011;23315;52.078;4.756;2023-09-18T12:03:43;8.25;;;3.80;;
37453;SDS011;23315;52.078;4.756;2023-09-18T12:06:10;10.10;;;4.07;;
37453;SDS011;23315;52.078;4.756;2023-09-18T12:08:38;15.25;;;3.83;;
37453;SDS011;23315;52.078;4.756;2023-09-18T12:11:04;9.02;;;3.95;;
37453;SDS011;23315;52.078;4.756;2023-09-18T12:13:30;9.90;;;3.45;;
37453;SDS011;23315;52.078;4.756;2023-09-18T12:15:59;11.50;;;4.43;;
37453;SDS011;23315;52.078;4.756;2023-09-18T12:18:27;10.73;;;3.75;;
37453;SDS011;23315;52.078;4.756;2023-09-18T12:20:56;7.82;;;3.22;;
37453;SDS011;23315;52.078;4.756;2023-09-18T12:23:23;10.90;;;3.63;;
37453;SDS011;23315;52.078;4.756;2023-09-18T12:25:50;9.23;;;3.55;;
37453;SDS011;23315;52.078;4.756;2023-09-18T12:28:24;13.63;;;4.38;;
37453;SDS011;23315;52.078;4.756;2023-09-18T12:30:52;10.38;;;3.63;;
37453;SDS011;23315;52.078;4.756;2023-09-18T12:33:21;12.05;;;4.43;;
37453;SDS011;23315;52.078;4.756;2023-09-18T12:35:47;8.60;;;3.95;;
37453;SDS011;23315;52.078;4.756;2023-09-18T12:38:19;11.35;;;4.90;;
37453;SDS011;23315;52.078;4.756;2023-09-18T12:40:48;7.47;;;4.72;;
37453;SDS011;23315;52.078;4.756;2023-09-18T12:43:13;15.07;;;4.85;;
37453;SDS011;23315;52.078;4.756;2023-09-18T12:45:42;7.75;;;4.25;;
37453;SDS011;23315;52.078;4.756;2023-09-18T12:48:09;8.70;;;4.40;;
37453;SDS011;23315;52.078;4.756;2023-09-18T12:50:35;7.43;;;3.65;;
37453;SDS011;23315;52.078;4.756;2023-09-18T12:53:06;12.10;;;5.25;;
37453;SDS011;23315;52.078;4.756;2023-09-18T12:55:35;9.35;;;4.32;;
37453;SDS011;23315;52.078;4.756;2023-09-18T12:58:01;10.90;;;3.72;;
37453;SDS011;23315;52.078;4.756;2023-09-18T13:00:30;11.48;;;4.72;;
37453;SDS011;23315;52.078;4.756;2023-09-18T13:02:56;7.10;;;3.67;;
37453;SDS011;23315;52.078;4.756;2023-09-18T13:05:22;8.50;;;3.60;;
37453;SDS011;23315;52.078;4.756;2023-09-18T13:07:51;9.68;;;3.25;;
37453;SDS011;23315;52.078;4.756;2023-09-18T13:10:18;7.78;;;3.17;;
37453;SDS011;23315;52.078;4.756;2023-09-18T13:12:47;6.18;;;3.20;;
37453;SDS011;23315;52.078;4.756;2023-09-18T13:15:24;7.00;;;2.85;;
37453;SDS011;23315;52.078;4.756;2023-09-18T13:17:52;8.38;;;3.40;;
37453;SDS011;23315;52.078;4.756;2023-09-18T13:20:18;8.68;;;3.00;;
37453;SDS011;23315;52.078;4.756;2023-09-18T13:22:51;6.65;;;2.90;;
37453;SDS011;23315;52.078;4.756;2023-09-18T13:25:19;6.57;;;2.78;;
37453;SDS011;23315;52.078;4.756;2023-09-18T13:27:47;5.47;;;2.85;;
37453;SDS011;23315;52.078;4.756;2023-09-18T13:30:12;8.52;;;3.83;;
37453;SDS011;23315;52.078;4.756;2023-09-18T13:32:41;4.90;;;2.55;;
37453;SDS011;23315;52.078;4.756;2023-09-18T13:35:07;8.75;;;3.08;;
37453;SDS011;23315;52.078;4.756;2023-09-18T13:37:33;5.72;;;3.25;;
37453;SDS011;23315;52.078;4.756;2023-09-18T13:39:59;7.20;;;2.53;;
37453;SDS011;23315;52.078;4.756;2023-09-18T13:42:31;7.00;;;2.95;;
37453;SDS011;23315;52.078;4.756;2023-09-18T13:44:57;6.07;;;2.88;;
37453;SDS011;23315;52.078;4.756;2023-09-18T13:47:25;5.38;;;2.80;;
37453;SDS011;23315;52.078;4.756;2023-09-18T13:49:52;7.35;;;3.15;;
37453;SDS011;23315;52.078;4.756;2023-09-18T13:52:17;6.32;;;2.72;;
37453;SDS011;23315;52.078;4.756;2023-09-18T13:54:44;9.77;;;3.00;;
37453;SDS011;23315;52.078;4.756;2023-09-18T13:57:16;9.52;;;3.10;;
37453;SDS011;23315;52.078;4.756;2023-09-18T13:59:41;4.28;;;2.15;;
37453;SDS011;23315;52.078;4.756;2023-09-18T14:02:07;11.90;;;3.90;;
37453;SDS011;23315;52.078;4.756;2023-09-18T14:04:33;5.47;;;2.85;;
37453;SDS011;23315;52.078;4.756;2023-09-18T14:06:59;7.97;;;2.83;;
37453;SDS011;23315;52.078;4.756;2023-09-18T14:09:24;6.88;;;3.13;;
37453;SDS011;23315;52.078;4.756;2023-09-18T14:11:50;7.35;;;3.10;;
37453;SDS011;23315;52.078;4.756;2023-09-18T14:14:15;4.45;;;2.75;;
37453;SDS011;23315;52.078;4.756;2023-09-18T14:16:40;4.40;;;3.08;;
37453;SDS011;23315;52.078;4.756;2023-09-18T14:19:06;7.05;;;2.60;;
37453;SDS011;23315;52.078;4.756;2023-09-18T14:21:35;7.28;;;3.47;;
37453;SDS011;23315;52.078;4.756;2023-09-18T14:24:01;5.10;;;3.08;;
37453;SDS011;23315;52.078;4.756;2023-09-18T14:26:27;7.18;;;3.70;;
37453;SDS011;23315;52.078;4.756;2023-09-18T14:28:52;4.88;;;3.63;;
37453;SDS011;23315;52.078;4.756;2023-09-18T14:31:19;7.75;;;4.35;;
37453;SDS011;23315;52.078;4.756;2023-09-18T14:33:44;8.30;;;4.72;;
37453;SDS011;23315;52.078;4.756;2023-09-18T14:36:10;8.50;;;4.97;;
37453;SDS011;23315;52.078;4.756;2023-09-18T14:38:35;9.63;;;5.38;;
37453;SDS011;23315;52.078;4.756;2023-09-18T14:41:01;9.57;;;5.85;;
37453;SDS011;23315;52.078;4.756;2023-09-18T14:43:28;8.10;;;5.80;;
37453;SDS011;23315;52.078;4.756;2023-09-18T14:45:53;7.95;;;5.60;;